Melbourne Beach, FL (32951)

8:34 PM EDT on August 27, 2014 (GMT -0400)
Melbourne Shores | Change Station
CLOSE
Current Station
Personal Weather Station
Location: Melbourne Beach, FL
Elevation: 34 ft
Nearby Weather Stations

Elev 34 ft 27.96 °N, 80.51 °W | Updated 2 seconds ago

Partly Cloudy
Partly Cloudy
82.1 °F
Feels Like 90 °F
N
16.0
Wind Variable Wind from NE
Gusts 18.0 mph

Today
High -- | Low -- °F
--% Chance of Precip.
Yesterday
High -- | Low -- °F
Precip. -- in
6:58 AM 7:48 PM
Waxing Crescent, 5% visible
Pressure 29.97 in
Visibility 10.0 miles
Clouds Scattered Clouds 1700 ft
Heat Index 90 °F
Dew Point 77 °F
Humidity 84%
Rainfall 0.00 in
Snow Depth Not available.
UV 0 out of 12
Pollen 7.90 out of 12
Air Quality Not available.
Flu Activity Not available.
METAR KMLB 272353Z 05013KT 10SM SCT017 28/24 A2997 RMK AO2 SLP149 T02780239 10317 20278 53010

More Conditions Fewer Conditions

Pressure 29.97 in
Visibility 10.0 miles
Clouds Scattered Clouds 1700 ft
Heat Index 90 °F
Dew Point 77 °F
Humidity 84%
Rainfall 0.00 in
Snow Depth Not available.
UV 0 out of 12
Pollen 7.90 out of 12
Air Quality Not available.
Flu Activity Not available.
METAR KMLB 272353Z 05013KT 10SM SCT017 28/24 A2997 RMK AO2 SLP149 T02780239 10317 20278 53010

More Conditions Fewer Conditions

10-Day Weather Forecast

Almanac

Astronomy

Aug. 27, 2014 Rise Set
Actual Time 6:58 AM EDT 7:48 PM EDT
Civil Twilight 6:34 AM EDT 8:12 PM EDT
Nautical Twilight 6:05 AM EDT 8:40 PM EDT
Astronomical Twilight 5:36 AM EDT 9:09 PM EDT
Moon 8:39 AM EDT (8/27) 8:55 PM EDT (8/27)
Length of Visible Light 13h 38m
Length of Day
12h 50m
Tomorrow will be 1m 33s shorter.
Waxing Crescent, 5% of the Moon is Illuminated
Today
Waxing Crescent
Sep 2
First Quarter
Sep 8
Full
Sep 15
Last Quarter
Sep 24
New

Today's Extremes

State Highs State Lows

Community

WunderPhotos

Upload Photos

1,747,836 photos uploaded!

Nearby

Snow Depth

Station Depth Elevation
No new snow has been reported.

Earthquake Activity

City Distance Mag. Time & Date
No recent earthquake activity has been reported nearby.
Minimum magnitude displayed is 2.5.

Coastal Water Temperatures

Place Temperature
Trident Pier, FL 82.9 °F
Fort Myers, FL 89.1 °F
Lake Worth, FL 87.1 °F

Nearby Weather Stations